createdAt,value
2017-07-03T00:04:15.485Z,98.50
2017-07-03T00:16:46.048Z,97.80
2017-07-03T00:22:58.527Z,98.10
2017-07-03T00:28:38.256Z,98.20
2017-07-03T00:34:17.332Z,98.70
2017-07-03T00:37:21.171Z,98.50
2017-07-03T00:43:22.224Z,98.40
2017-07-03T00:45:53.943Z,98.40
2017-07-03T00:48:25.208Z,98.60
2017-07-03T00:51:07.702Z,98.50
2017-07-03T00:53:42.060Z,98.20
2017-07-03T00:56:21.182Z,98.20
2017-07-03T00:59:07.568Z,98.00
2017-07-03T01:01:39.532Z,98.20
2017-07-03T01:04:09.108Z,98.40
2017-07-03T01:06:37.704Z,98.30
2017-07-03T01:09:15.538Z,98.10
2017-07-03T01:11:45.968Z,98.20
2017-07-03T01:14:24.017Z,98.60
2017-07-03T01:16:55.722Z,98.30
2017-07-03T01:20:00.313Z,98.10
2017-07-03T01:25:27.822Z,98.00
2017-07-03T01:28:00.309Z,98.20
2017-07-03T01:34:25.732Z,98.50
2017-07-03T01:37:06.896Z,98.10
2017-07-03T01:40:04.190Z,98.30
2017-07-03T01:42:44.283Z,98.30
2017-07-03T01:45:15.231Z,98.20
2017-07-03T01:47:42.873Z,98.20
2017-07-03T01:50:12.785Z,98.40
2017-07-03T01:52:41.742Z,98.80
2017-07-03T02:04:54.313Z,98.50
2017-07-03T02:07:27.216Z,98.30
2017-07-03T02:10:19.562Z,98.50
2017-07-03T02:13:18.593Z,98.40
2017-07-03T02:15:48.684Z,98.50
2017-07-03T02:18:16.365Z,98.60
2017-07-03T02:20:45.182Z,98.80
2017-07-03T02:23:21.984Z,98.10
2017-07-03T02:26:07.161Z,98.40
2017-07-03T02:28:37.489Z,98.70
2017-07-03T02:31:06.820Z,98.40
2017-07-03T02:43:24.989Z,98.30
2017-07-03T02:46:02.632Z,98.50
2017-07-03T02:48:34.099Z,98.50
2017-07-03T02:51:01.897Z,98.50
2017-07-03T02:53:36.436Z,98.40
2017-07-03T02:56:05.969Z,98.30
2017-07-03T02:58:38.243Z,98.50
2017-07-03T03:01:16.436Z,98.30
2017-07-03T03:03:46.807Z,98.50
2017-07-03T03:06:15.153Z,98.50
2017-07-03T03:08:50.936Z,98.40
2017-07-03T03:11:32.725Z,98.60
2017-07-03T03:14:09.663Z,98.80
2017-07-03T03:16:37.262Z,98.50
2017-07-03T03:19:05.657Z,98.30
2017-07-03T03:21:36.071Z,98.60
2017-07-03T03:27:21.507Z,98.40
2017-07-03T03:29:49.157Z,98.70
2017-07-03T03:32:17.579Z,98.40
2017-07-03T03:34:48.166Z,98.40
2017-07-03T03:37:18.241Z,98.40
2017-07-03T03:39:47.745Z,98.20
2017-07-03T03:42:20.938Z,98.30
2017-07-03T03:44:49.400Z,98.30
2017-07-03T03:47:18.332Z,98.40
2017-07-03T03:52:55.333Z,98.50
2017-07-03T03:55:26.796Z,98.20
2017-07-03T03:57:56.606Z,98.40
2017-07-03T04:00:32.276Z,98.50
2017-07-03T04:02:59.971Z,98.20
2017-07-03T04:05:27.860Z,98.20
2017-07-03T04:07:56.256Z,98.20
2017-07-03T04:10:26.487Z,98.20
2017-07-03T04:12:55.478Z,98.30
2017-07-03T04:18:39.760Z,98.00
2017-07-03T04:21:25.274Z,98.20
2017-07-03T04:23:55.258Z,98.00
2017-07-03T04:26:22.935Z,98.00
2017-07-03T04:28:51.901Z,98.20
2017-07-03T04:31:21.688Z,98.40
2017-07-03T04:33:50.043Z,98.20
2017-07-03T04:36:21.640Z,98.00
2017-07-03T04:38:52.496Z,97.60
2017-07-03T04:41:21.699Z,97.60
2017-07-03T04:43:49.885Z,97.90
2017-07-03T04:46:22.730Z,97.90
2017-07-03T04:48:50.358Z,97.60
2017-07-03T04:51:17.948Z,97.90
2017-07-03T04:53:46.421Z,97.60
2017-07-03T04:56:14.005Z,97.80
2017-07-03T04:58:41.579Z,97.80
2017-07-03T05:01:09.172Z,97.40
2017-07-03T05:03:38.601Z,97.80
2017-07-03T05:06:06.198Z,97.10
2017-07-03T05:08:33.746Z,96.70
2017-07-03T05:11:01.297Z,97.10
2017-07-03T05:13:28.860Z,96.60
2017-07-03T05:15:58.214Z,97.10
2017-07-03T05:18:25.780Z,96.70
2017-07-03T05:20:54.159Z,97.50
2017-07-03T05:23:21.722Z,97.20
2017-07-03T05:25:49.297Z,96.90
2017-07-03T05:28:17.612Z,97.00
2017-07-03T05:30:45.147Z,97.00
2017-07-03T05:33:13.493Z,96.20
2017-07-03T05:35:41.583Z,96.20
2017-07-03T05:38:09.583Z,94.90
2017-07-03T05:40:37.911Z,95.20
2017-07-03T05:43:11.125Z,95.20
2017-07-03T05:45:38.728Z,95.30
2017-07-03T05:48:07.025Z,93.90
2017-07-03T05:50:36.196Z,93.90
2017-07-03T05:53:03.727Z,94.40
2017-07-03T05:55:31.271Z,94.60
2017-07-03T05:57:58.874Z,94.30
2017-07-03T06:00:26.457Z,94.20
2017-07-03T06:02:54.775Z,89.40
2017-07-03T06:05:22.366Z,90.00
2017-07-03T06:07:49.963Z,90.50
2017-07-03T06:10:17.529Z,91.40
2017-07-03T06:12:45.141Z,89.20
2017-07-03T06:15:12.711Z,87.50
2017-07-03T06:17:40.302Z,87.60
2017-07-03T06:20:07.868Z,85.20
2017-07-03T06:22:35.401Z,88.20
2017-07-03T06:25:02.995Z,89.70
2017-07-03T06:27:30.562Z,86.70
2017-07-03T06:29:58.138Z,88.00
2017-07-03T06:32:25.729Z,87.60
2017-07-03T06:34:53.299Z,89.30
2017-07-03T06:37:21.644Z,85.30
2017-07-03T06:39:49.209Z,85.20
2017-07-03T06:42:16.827Z,85.70
2017-07-03T06:44:44.414Z,82.30
2017-07-03T06:47:11.996Z,84.30
2017-07-03T06:49:39.558Z,83.70
2017-07-03T06:52:07.171Z,82.70
2017-07-03T06:54:34.747Z,82.10
2017-07-03T06:57:02.312Z,85.60
2017-07-03T06:59:29.904Z,81.00
2017-07-03T07:01:57.561Z,80.80
2017-07-03T07:04:25.244Z,79.90
2017-07-03T07:06:52.776Z,83.20
2017-07-03T07:09:20.348Z,80.30
2017-07-03T07:11:48.049Z,78.90
2017-07-03T07:14:15.676Z,74.70
2017-07-03T07:16:43.292Z,78.20
2017-07-03T07:19:10.852Z,74.90
2017-07-03T07:21:38.438Z,73.90
2017-07-03T07:24:06.396Z,70.40
2017-07-03T07:26:33.943Z,73.80
2017-07-03T07:29:01.535Z,74.00
2017-07-03T07:31:29.112Z,74.80
2017-07-03T07:33:57.793Z,76.30
2017-07-03T07:36:25.957Z,74.00
2017-07-03T07:38:54.058Z,70.80
2017-07-03T07:41:22.096Z,73.10
2017-07-03T07:43:50.418Z,69.70
2017-07-03T07:46:18.922Z,72.10
2017-07-03T07:48:46.482Z,72.10
2017-07-03T07:51:14.077Z,69.30
2017-07-03T07:53:41.656Z,68.70
2017-07-03T07:56:10.067Z,68.40
2017-07-03T07:58:38.390Z,70.30
2017-07-03T08:01:05.996Z,70.10
2017-07-03T08:03:33.548Z,68.00
2017-07-03T08:06:01.144Z,68.10
2017-07-03T08:08:28.724Z,66.70
2017-07-03T08:10:56.284Z,64.20
2017-07-03T08:13:24.642Z,62.20
2017-07-03T08:15:52.208Z,61.90
2017-07-03T08:18:19.780Z,64.10
2017-07-03T08:20:48.754Z,65.40
2017-07-03T08:23:17.129Z,59.60
2017-07-03T08:25:44.695Z,60.00
2017-07-03T08:28:12.283Z,63.70
2017-07-03T08:30:39.851Z,62.00
2017-07-03T08:33:07.404Z,62.80
2017-07-03T08:35:34.982Z,62.70
2017-07-03T08:38:02.604Z,62.40
2017-07-03T08:40:30.296Z,59.20
2017-07-03T08:42:57.922Z,59.80
2017-07-03T08:45:25.537Z,57.70
2017-07-03T08:47:53.138Z,56.50
2017-07-03T08:50:20.741Z,56.80
2017-07-03T08:52:48.321Z,55.50
2017-07-03T08:55:15.885Z,54.50
2017-07-03T08:57:43.453Z,52.10
2017-07-03T09:00:11.024Z,52.00
2017-07-03T09:02:38.591Z,52.60
2017-07-03T09:05:06.150Z,52.70
2017-07-03T09:07:33.706Z,52.40
2017-07-03T09:10:01.285Z,52.50
2017-07-03T09:12:28.842Z,50.50
2017-07-03T09:14:56.779Z,49.90
2017-07-03T09:17:24.346Z,49.60
2017-07-03T09:19:51.918Z,51.60
2017-07-03T09:22:19.786Z,49.70
2017-07-03T09:24:47.353Z,49.50
2017-07-03T09:27:14.927Z,45.60
2017-07-03T09:29:43.301Z,44.30
2017-07-03T09:32:10.880Z,45.40
2017-07-03T09:34:38.495Z,45.90
2017-07-03T09:37:07.746Z,49.60
2017-07-03T09:39:35.354Z,49.60
2017-07-03T09:42:02.911Z,52.40
2017-07-03T09:44:30.467Z,49.90
2017-07-03T09:46:57.987Z,45.50
2017-07-03T09:49:25.592Z,41.40
2017-07-03T09:51:53.153Z,42.70
2017-07-03T09:54:20.962Z,41.50
2017-07-03T09:56:49.299Z,41.10
2017-07-03T09:59:16.868Z,41.00
2017-07-03T10:01:44.442Z,33.70
2017-07-03T10:04:12.076Z,34.40
2017-07-03T10:06:39.636Z,35.90
2017-07-03T10:09:07.229Z,34.10
2017-07-03T10:11:34.835Z,36.90
2017-07-03T10:14:03.156Z,41.20
2017-07-03T10:16:30.748Z,41.20
2017-07-03T10:18:58.328Z,40.90
2017-07-03T10:21:25.949Z,42.30
2017-07-03T10:23:53.524Z,41.70
2017-07-03T10:26:21.083Z,41.70
2017-07-03T10:28:48.715Z,41.80
2017-07-03T10:31:17.107Z,40.10
2017-07-03T10:33:44.711Z,40.10
2017-07-03T10:36:12.314Z,39.80
2017-07-03T10:38:39.889Z,42.90
2017-07-03T10:41:07.457Z,45.90
2017-07-03T10:43:36.092Z,45.10
2017-07-03T10:46:03.679Z,44.30
2017-07-03T10:48:33.234Z,45.90
2017-07-03T10:51:01.540Z,51.60
2017-07-03T10:53:29.093Z,51.50
2017-07-03T10:55:56.715Z,53.10
2017-07-03T10:58:24.274Z,46.20
2017-07-03T11:00:51.837Z,45.10
2017-07-03T11:03:19.574Z,41.20
2017-07-03T11:05:47.137Z,39.90
2017-07-03T11:08:14.737Z,35.90
2017-07-03T11:10:42.330Z,33.20
2017-07-03T11:13:10.254Z,36.50
2017-07-03T11:15:37.848Z,38.70
2017-07-03T11:18:05.423Z,38.40
2017-07-03T11:20:32.961Z,41.40
2017-07-03T11:23:00.545Z,45.50
2017-07-03T11:25:28.141Z,45.20
2017-07-03T11:27:55.720Z,47.00
2017-07-03T11:30:23.308Z,46.10
2017-07-03T11:32:50.935Z,45.90
2017-07-03T11:35:18.526Z,44.40
2017-07-03T11:37:46.077Z,37.80
2017-07-03T11:40:13.677Z,37.00
2017-07-03T11:42:41.302Z,37.00
2017-07-03T11:45:08.868Z,34.10
2017-07-03T11:47:36.437Z,31.00
2017-07-03T11:50:04.043Z,30.70
2017-07-03T11:52:32.626Z,31.60
2017-07-03T11:55:00.201Z,32.50
2017-07-03T11:57:27.756Z,31.70
2017-07-03T11:59:55.318Z,30.20
2017-07-03T12:02:25.547Z,33.30
2017-07-03T12:04:53.124Z,29.80
2017-07-03T12:07:20.682Z,31.60
2017-07-03T12:09:48.259Z,31.60
2017-07-03T12:12:15.811Z,35.30
2017-07-03T12:14:43.367Z,35.50
2017-07-03T12:17:10.939Z,35.20
2017-07-03T12:19:38.535Z,38.20
2017-07-03T12:22:06.891Z,35.60
2017-07-03T12:24:34.472Z,35.50
2017-07-03T12:27:02.093Z,35.80
2017-07-03T12:29:29.664Z,33.80
2017-07-03T12:31:57.383Z,31.40
2017-07-03T12:34:25.737Z,37.00
2017-07-03T12:36:53.331Z,36.90
2017-07-03T12:39:20.906Z,37.70
2017-07-03T12:41:48.474Z,34.00
2017-07-03T12:44:16.817Z,32.50
2017-07-03T12:46:44.372Z,32.30
2017-07-03T12:49:11.932Z,32.40
2017-07-03T12:51:39.493Z,36.00
2017-07-03T12:54:07.062Z,41.00
2017-07-03T12:56:34.951Z,41.40
2017-07-03T12:59:03.324Z,40.70
2017-07-03T13:01:30.897Z,40.70
2017-07-03T13:03:58.448Z,40.70
2017-07-03T13:06:26.026Z,36.60
2017-07-03T13:08:53.562Z,35.90
2017-07-03T13:11:21.134Z,36.70
2017-07-03T13:13:48.737Z,40.70
2017-07-03T13:16:16.307Z,43.90
2017-07-03T13:18:43.866Z,44.90
2017-07-03T13:21:12.218Z,44.70
2017-07-03T13:23:39.882Z,44.70
2017-07-03T13:26:07.466Z,43.20
2017-07-03T13:28:35.077Z,42.10
2017-07-03T13:31:02.637Z,40.60
2017-07-03T13:33:30.241Z,44.20
2017-07-03T13:35:57.807Z,41.40
2017-07-03T13:38:25.331Z,42.70
2017-07-03T13:40:52.879Z,42.40
2017-07-03T13:43:21.195Z,43.70
2017-07-03T13:45:48.804Z,43.20
2017-07-03T13:48:17.364Z,41.30
2017-07-03T13:50:44.940Z,38.00
2017-07-03T13:53:12.524Z,34.80
2017-07-03T13:55:40.083Z,34.20
2017-07-03T13:58:07.651Z,31.60
2017-07-03T14:00:35.223Z,34.10
2017-07-03T14:03:04.561Z,33.50
2017-07-03T14:05:32.105Z,33.40
2017-07-03T14:08:00.486Z,32.10
2017-07-03T14:10:28.056Z,32.10
2017-07-03T14:12:56.393Z,32.70
2017-07-03T14:15:23.978Z,32.80
2017-07-03T14:17:51.546Z,30.50
2017-07-03T14:20:19.111Z,30.00
2017-07-03T14:22:46.669Z,30.20
2017-07-03T14:25:14.294Z,31.70
2017-07-03T14:27:41.967Z,30.80
2017-07-03T14:30:09.558Z,29.40
2017-07-03T14:32:37.098Z,32.40
2017-07-03T14:35:04.690Z,30.60
2017-07-03T14:37:32.391Z,30.50
2017-07-03T14:40:00.033Z,30.00
2017-07-03T14:42:27.607Z,30.30
2017-07-03T14:44:55.185Z,30.10
2017-07-03T14:47:22.829Z,32.60
2017-07-03T14:49:50.416Z,31.00
2017-07-03T14:52:18.011Z,31.60
2017-07-03T14:54:45.576Z,29.40
2017-07-03T14:57:13.138Z,28.50
2017-07-03T14:59:40.740Z,27.80
2017-07-03T15:02:08.307Z,29.10
2017-07-03T15:04:35.901Z,28.40
2017-07-03T15:07:04.227Z,28.10
2017-07-03T15:09:31.791Z,28.00
2017-07-03T15:11:59.445Z,27.90
2017-07-03T15:14:27.064Z,27.90
2017-07-03T15:16:55.493Z,27.90
2017-07-03T15:19:23.060Z,27.90
2017-07-03T15:21:51.053Z,29.00
2017-07-03T15:24:18.661Z,29.20
2017-07-03T15:26:46.235Z,30.50
2017-07-03T15:29:14.616Z,30.80
2017-07-03T15:31:43.001Z,30.70
2017-07-03T15:34:11.340Z,33.80
2017-07-03T15:36:38.952Z,33.10
2017-07-03T15:39:07.332Z,32.50
2017-07-03T15:41:35.688Z,33.10
2017-07-03T15:44:03.261Z,33.10
2017-07-03T15:46:31.591Z,30.00
2017-07-03T15:48:59.621Z,30.00
2017-07-03T15:51:27.202Z,31.20
2017-07-03T15:53:55.550Z,32.10
2017-07-03T15:56:23.134Z,32.10
2017-07-03T15:58:50.690Z,33.10
2017-07-03T16:01:18.233Z,34.40
2017-07-03T16:03:45.894Z,38.70
2017-07-03T16:06:13.435Z,39.00
2017-07-03T16:08:41.025Z,35.90
2017-07-03T16:11:08.603Z,31.80
2017-07-03T16:13:36.488Z,31.10
2017-07-03T16:16:04.123Z,30.40
2017-07-03T16:18:31.721Z,29.20
2017-07-03T16:20:59.526Z,29.30
2017-07-03T16:23:27.126Z,30.00
2017-07-03T16:25:54.714Z,29.80
2017-07-03T16:28:22.283Z,30.90
2017-07-03T16:30:50.039Z,32.60
2017-07-03T16:33:17.868Z,32.30
2017-07-03T16:35:45.511Z,32.00
2017-07-03T16:38:13.053Z,33.30
2017-07-03T16:40:40.665Z,35.30
2017-07-03T16:43:08.231Z,37.50
2017-07-03T16:45:35.882Z,41.40
2017-07-03T16:48:03.492Z,41.40
2017-07-03T16:50:38.458Z,41.70
2017-07-03T16:53:11.347Z,42.80
2017-07-03T16:55:41.360Z,44.30
2017-07-03T16:58:09.090Z,45.80
2017-07-03T17:00:36.649Z,46.80
2017-07-03T17:03:04.232Z,45.00
2017-07-03T17:05:31.828Z,46.60
2017-07-03T17:08:02.872Z,47.10
2017-07-03T17:10:31.019Z,48.10
2017-07-03T17:12:59.430Z,49.40
2017-07-03T17:15:27.025Z,49.30
2017-07-03T17:17:55.508Z,52.30
2017-07-03T17:20:23.862Z,52.60
2017-07-03T17:22:51.591Z,52.50
2017-07-03T17:25:19.147Z,51.10
2017-07-03T17:27:46.745Z,50.80
2017-07-03T17:30:14.378Z,51.30
2017-07-03T17:32:42.361Z,51.80
2017-07-03T17:35:10.374Z,52.30
2017-07-03T17:37:38.031Z,51.40
2017-07-03T17:40:05.613Z,50.90
2017-07-03T17:42:33.346Z,51.80
2017-07-03T17:45:00.948Z,51.30
2017-07-03T17:47:32.432Z,54.20
2017-07-03T17:50:00.511Z,53.40
2017-07-03T17:52:28.822Z,53.70
2017-07-03T17:55:00.381Z,53.60
2017-07-03T17:57:27.981Z,54.20
2017-07-03T17:59:55.537Z,54.40
2017-07-03T18:02:23.443Z,55.30
2017-07-03T18:04:51.789Z,57.10
2017-07-03T18:07:19.403Z,57.00
2017-07-03T18:09:46.984Z,57.70
2017-07-03T18:12:14.939Z,56.60
2017-07-03T18:14:42.523Z,57.20
2017-07-03T18:17:10.052Z,57.50
2017-07-03T18:19:37.636Z,57.40
2017-07-03T18:22:05.249Z,58.20
2017-07-03T18:24:33.240Z,59.30
2017-07-03T18:27:00.811Z,61.30
2017-07-03T18:29:29.157Z,64.70
2017-07-03T18:31:56.738Z,64.50
2017-07-03T18:34:24.296Z,64.00
2017-07-03T18:36:51.848Z,65.70
2017-07-03T18:39:19.393Z,65.10
2017-07-03T18:41:46.985Z,66.60
2017-07-03T18:44:14.551Z,65.60
2017-07-03T18:46:42.537Z,66.40
2017-07-03T18:49:10.102Z,66.60
2017-07-03T18:51:37.634Z,65.60
2017-07-03T18:54:05.242Z,66.40
2017-07-03T18:56:33.908Z,67.70
2017-07-03T18:59:01.619Z,67.60
2017-07-03T19:01:29.257Z,67.70
2017-07-03T19:03:56.815Z,67.90
2017-07-03T19:06:24.500Z,68.60
2017-07-03T19:08:52.368Z,68.90
2017-07-03T19:11:20.043Z,69.00
2017-07-03T19:13:47.669Z,68.50
2017-07-03T19:16:15.610Z,68.80
2017-07-03T19:18:43.230Z,68.80
2017-07-03T19:21:12.017Z,68.80
2017-07-03T19:23:39.653Z,70.40
2017-07-03T19:26:07.236Z,71.20
2017-07-03T19:28:34.834Z,71.50
2017-07-03T19:31:02.691Z,72.20
2017-07-03T19:33:30.676Z,72.70
2017-07-03T19:35:58.341Z,74.00
2017-07-03T19:38:26.005Z,74.50
2017-07-03T19:40:56.366Z,76.00
2017-07-03T19:43:24.823Z,75.90
2017-07-03T19:45:52.453Z,75.70
2017-07-03T19:48:20.263Z,76.40
2017-07-03T19:50:47.881Z,77.00
2017-07-03T19:53:15.494Z,77.40
2017-07-03T19:55:43.116Z,78.10
2017-07-03T19:58:10.659Z,79.60
2017-07-03T20:00:38.306Z,81.80
2017-07-03T20:03:06.824Z,82.70
2017-07-03T20:05:34.536Z,81.60
2017-07-03T20:08:02.164Z,82.20
2017-07-03T20:13:45.747Z,84.20
2017-07-03T20:16:13.318Z,85.30
2017-07-03T20:18:40.898Z,85.90
2017-07-03T20:21:13.103Z,86.80
2017-07-03T20:23:40.644Z,86.80
2017-07-03T20:26:10.927Z,88.90
2017-07-03T20:28:38.604Z,88.90
2017-07-03T20:31:06.174Z,88.90
2017-07-03T20:33:33.757Z,89.40
2017-07-03T20:36:01.326Z,89.80
2017-07-03T20:38:28.962Z,90.20
2017-07-03T20:40:57.305Z,90.10
2017-07-03T20:43:25.076Z,89.50
2017-07-03T20:45:52.709Z,88.80
2017-07-03T20:48:21.027Z,87.00
2017-07-03T20:50:51.238Z,86.90
2017-07-03T20:53:23.063Z,87.30
2017-07-03T20:55:50.628Z,86.70
2017-07-03T20:58:19.000Z,87.20
2017-07-03T21:00:46.552Z,87.20
2017-07-03T21:03:15.915Z,86.60
2017-07-03T21:05:43.487Z,87.70
2017-07-03T21:08:11.939Z,87.90
2017-07-03T21:10:40.254Z,87.20
2017-07-03T21:13:07.811Z,87.70
2017-07-03T21:15:36.174Z,87.40
2017-07-03T21:18:05.284Z,88.80
2017-07-03T21:20:32.846Z,88.70
2017-07-03T21:23:06.486Z,89.00
2017-07-03T21:25:35.729Z,89.00
2017-07-03T21:28:04.547Z,89.40
2017-07-03T21:31:15.978Z,90.00
2017-07-03T21:33:43.677Z,89.60
2017-07-03T21:36:12.184Z,89.40
2017-07-03T21:38:40.382Z,88.60
2017-07-03T21:41:08.050Z,88.30
2017-07-03T21:43:35.666Z,88.70
2017-07-03T21:46:04.929Z,89.20
2017-07-03T21:48:32.711Z,89.80
2017-07-03T21:51:04.782Z,89.50
2017-07-03T21:53:32.425Z,90.00
2017-07-03T21:56:00.402Z,90.20
2017-07-03T21:58:29.753Z,90.10
2017-07-03T22:00:57.509Z,90.20
2017-07-03T22:03:30.218Z,90.00
2017-07-03T22:05:57.891Z,90.00
2017-07-03T22:08:28.446Z,90.40
2017-07-03T22:10:56.541Z,90.20
2017-07-03T22:13:26.938Z,90.20
2017-07-03T22:15:54.667Z,89.20
2017-07-03T22:18:25.013Z,89.10
2017-07-03T22:20:53.556Z,89.80
2017-07-03T22:23:23.573Z,89.50
2017-07-03T22:25:51.221Z,90.30
2017-07-03T22:28:20.021Z,90.20
2017-07-03T22:30:48.430Z,90.30
2017-07-03T22:33:16.251Z,90.60
2017-07-03T22:35:46.444Z,90.70
2017-07-03T22:38:16.043Z,91.00
2017-07-03T22:40:47.462Z,91.00
2017-07-03T22:43:17.522Z,91.10
2017-07-03T22:45:48.361Z,91.20
2017-07-03T22:48:15.997Z,91.10
2017-07-03T22:50:44.455Z,91.60
2017-07-03T22:56:35.009Z,91.90
2017-07-03T22:59:02.946Z,91.90
2017-07-03T23:01:32.304Z,92.10
2017-07-03T23:04:03.912Z,92.50
2017-07-03T23:06:48.694Z,92.50
2017-07-03T23:09:16.463Z,92.30
2017-07-03T23:11:46.643Z,91.70
2017-07-03T23:20:45.793Z,90.80
2017-07-03T23:23:15.359Z,90.40
2017-07-03T23:25:43.045Z,90.10
2017-07-03T23:28:12.120Z,89.30
2017-07-03T23:30:41.401Z,88.10
2017-07-03T23:33:09.302Z,86.50
2017-07-03T23:35:37.571Z,85.80
2017-07-03T23:38:06.092Z,83.30
2017-07-03T23:40:33.733Z,81.70
2017-07-03T23:43:01.324Z,81.50
2017-07-03T23:45:32.640Z,80.90
2017-07-03T23:48:00.291Z,81.00
2017-07-03T23:50:27.935Z,79.60
2017-07-03T23:52:55.560Z,79.60
2017-07-03T23:55:23.174Z,80.10
2017-07-03T23:57:51.547Z,82.10
